NCAR-RAP Real-Time Weather Data

Output produced by METARs form (19 June 2019  12:01 UTC)
found at http://weather.rap.ucar.edu/surface/
 
KBIL 191153Z 22008KT 10SM FEW070 SCT200 13/09 A2984 RMK AO2 SLP084 ACC DSNT NE-SE 70001 T01330089 10178 20133 56008
KBIL 191053Z 23010KT 10SM FEW070 FEW200 14/09 A2984 RMK AO2 SLP083 T01390089
KBIL 190953Z 24010KT 10SM FEW070 FEW180 16/09 A2985 RMK AO2 SLP081 T01560089
KBIL 190853Z 24009KT 10SM FEW070 FEW180 16/09 A2987 RMK AO2 SLP083 T01560094 56017
KBIL 190753Z 24007KT 10SM FEW070 SCT180 15/09 A2988 RMK AO2 SLP088 T01500089
KBIL 190653Z 23004KT 10SM FEW060 SCT090 BKN180 17/09 A2990 RMK AO2 LTG DSNT SW AND W SLP095 FRQ LTG DSNT SW-NW CB DSNT SW-NW T01670094 403000133
KBIL 190553Z 24011KT 10SM FEW060 BKN090 BKN120 17/10 A2992 RMK AO2 LTG DSNT W RAB0459E12 TSE11B13E32 SLP101 CB DSNT S-W P0001 60001 T01720100 10228 20172 56008
KBIL 190532Z 22011KT 10SM FEW050 BKN090 17/11 A2993 RMK AO2 LTG DSNT SW RAB0459E12 TSE11B13E32 OCNL LTGICCC DSNT SW TS DSNT SW P0001 T01720106
KBIL 190513Z 23010KT 10SM TS FEW048CB BKN080 BKN120 17/11 A2992 RMK AO2 LTG DSNT W RAB0459E12 TSE11B13 OCNL LTGIC VC W TS W MOV SE P0001 T01720106
KBIL 190453Z 27009KT 10SM FEW048 BKN080 BKN120 18/09 A2992 RMK AO2 LTG DSNT W RAB42E52 SLP103 OCNL LTG DSNT W-NW CB DSNT W-NW P0000 T01780094
KBIL 190353Z 30007KT 10SM SCT110 BKN180 18/08 A2991 RMK AO2 RAE29 SLP102 OCNL LTG DSNT W CB DSNT W P0000 T01830078
KBIL 190253Z 32016KT 9SM -RA FEW045 SCT070 OVC090 18/11 A2995 RMK AO2 PK WND 31026/0242 LTG DSNT SW RAB38 SLP116 CB DSNT SW P0000 60000 T01780106 53011
KBIL 190153Z 36011G15KT 10SM SCT080 BKN110 22/09 A2993 RMK AO2 SLP109 CB SHRA DSNT W-N T02170089
KBIL 190053Z VRB05KT 10SM SCT100 23/11 A2990 RMK AO2 SLP101 OCNL LTG DSNT NW CB SHRA DSNT NW T02280106
KBIL 182353Z 01012KT 10SM FEW110 BKN130 21/11 A2991 RMK AO2 PK WND 34035/2254 RAE05 SLP108 CB SHRA DSNT NE-SE NW P0000 60000 T02060106 10300 20200 50006
KBIL 182253Z 34021G29KT 10SM -RA FEW080 OVC110 23/10 A2992 RMK AO2 PK WND 33030/2155 LTG DSNT N AND E AND S RAB03E20B50 TSE22 SLP106 CB DSNT S NW-E P0000 T02280100
KBIL 182228Z 32012KT 10SM FEW055 BKN085 BKN110 24/09 A2991 RMK AO2 PK WND 33030/2155 LTG DSNT NW RAB03E20 TSE22 CB SHRA DSNT NW-E P0000 T02390089
KBIL 182153Z 33026G38KT 10SM TS FEW085CB BKN100 24/08 A2991 RMK AO2 PK WND 30038/2147 LTG DSNT NW-NE SLP100 TSB32 OCNL LTGICCG N TS N MOV E FROPA T02440083
KBIL 182134Z COR 28010G23KT 10SM TS SCT075CB BKN100 29/05 A2989 RMK AO2 LTG DSNT NE AND NW TSB32 OCNL LTGICCG N TS N MOV SE T02940050
KBIL 182053Z 29011KT 10SM SCT075 SCT100 BKN180 28/07 A2989 RMK AO2 SLP090 OCNL LTG DSNT NW-N CB SHRA DSNT W-NE T02780072 56020
KBIL 181953Z 26012G20KT 10SM FEW055CB SCT070 BKN200 28/07 A2991 RMK AO2 SLP094 VIRGA N-NE CB N-NE MOV E CB DSNT SE W-NW T02780067
KBIL 181853Z 20009G17KT 10SM SCT060 BKN200 27/09 A2994 RMK AO2 SLP105 CB TCU DSNT N E-SW T02670089
KBIL 181753Z 22010KT 10SM FEW060 FEW095 BKN250 26/11 A2996 RMK AO2 SLP112 CB DSNT N TCU DSNT E-W T02560106 10256 20133 58015
KBIL 181653Z 22011KT 10SM FEW060 FEW095 BKN250 24/11 A2998 RMK AO2 SLP121 TCU DSNT S SW NW-N T02390111